Easter Island, Chile
Current Conditions -  °F | °C
As of 6:00 AM on Friday 19 Dec 2014 (Local Time) from SCIP Reporting Station
Broken Clouds Broken Clouds  
Wind Chill: 68°   Ceiling: 2000
Heat Index: 68°   Visibility: 6mi
Dew Point: 64°   Wind: 9mph
Humidity: 88%   Direction: 100°E
Pressure: 30.24"   Gusts: NA
Location:  27.12°S, 109.37°W
Report Text: SCIP 191200Z 10008KT 9999 BKN020 20/18 Q1024 RESHRA NOSIG
Loading
Personal Weather Stations






























Interactive Weather Map New forecast layout! Learn more

10-Day Weather Forecast

Advertisements
Track Severe Weather on mobile